createdAt,value
2018-06-10T00:00:37.829Z,34.60
2018-06-10T00:01:37.818Z,35.80
2018-06-10T00:02:37.822Z,35.20
2018-06-10T00:03:37.865Z,33.50
2018-06-10T00:04:37.784Z,35.50
2018-06-10T00:05:37.769Z,33.20
2018-06-10T00:06:37.757Z,36.10
2018-06-10T00:07:37.750Z,32.20
2018-06-10T00:08:37.749Z,33.50
2018-06-10T00:09:37.734Z,33.40
2018-06-10T00:10:37.712Z,36.90
2018-06-10T00:11:37.700Z,35.50
2018-06-10T00:12:37.686Z,40.80
2018-06-10T00:13:37.682Z,36.10
2018-06-10T00:14:37.658Z,39.50
2018-06-10T00:15:37.654Z,37.00
2018-06-10T00:16:37.639Z,40.90
2018-06-10T00:17:37.642Z,39.00
2018-06-10T00:18:37.613Z,36.50
2018-06-10T00:19:37.598Z,38.20
2018-06-10T00:20:37.593Z,36.80
2018-06-10T00:21:37.571Z,35.90
2018-06-10T00:22:37.563Z,37.60
2018-06-10T00:23:37.554Z,39.70
2018-06-10T00:24:37.539Z,38.50
2018-06-10T00:25:37.531Z,42.50
2018-06-10T00:26:37.526Z,40.20
2018-06-10T00:27:37.500Z,41.00
2018-06-10T00:28:37.493Z,41.40
2018-06-10T00:29:37.475Z,45.70
2018-06-10T00:30:37.469Z,45.50
2018-06-10T00:31:37.461Z,44.50
2018-06-10T00:32:37.449Z,43.80
2018-06-10T00:33:37.424Z,48.80
2018-06-10T00:34:37.412Z,51.00
2018-06-10T00:35:37.405Z,61.70
2018-06-10T00:36:37.396Z,47.60
2018-06-10T00:37:37.379Z,46.20
2018-06-10T00:38:37.410Z,45.10
2018-06-10T00:39:37.355Z,47.60
2018-06-10T00:40:37.347Z,46.20
2018-06-10T00:41:37.334Z,47.30
2018-06-10T00:42:37.321Z,47.50
2018-06-10T00:43:37.312Z,48.10
2018-06-10T00:44:37.294Z,47.80
2018-06-10T00:45:37.279Z,46.90
2018-06-10T00:46:37.270Z,44.00
2018-06-10T00:47:37.263Z,42.20
2018-06-10T00:48:37.293Z,45.50
2018-06-10T00:49:37.230Z,45.20
2018-06-10T00:50:37.221Z,45.40
2018-06-10T00:51:37.213Z,46.20
2018-06-10T00:52:37.204Z,45.70
2018-06-10T00:53:37.187Z,46.00
2018-06-10T00:54:37.178Z,50.10
2018-06-10T00:55:37.154Z,50.50
2018-06-10T00:56:37.150Z,47.30
2018-06-10T00:57:37.128Z,45.30
2018-06-10T00:58:37.129Z,45.20
2018-06-10T00:59:37.115Z,44.50
2018-06-10T01:00:37.091Z,48.50
2018-06-10T01:01:37.080Z,48.30
2018-06-10T01:02:37.073Z,52.90
2018-06-10T01:03:37.061Z,48.60
2018-06-10T01:04:37.049Z,54.90
2018-06-10T01:05:37.048Z,43.80
2018-06-10T01:06:37.023Z,47.00
2018-06-10T01:07:37.013Z,43.80
2018-06-10T01:08:37.010Z,46.30
2018-06-10T01:09:36.990Z,48.30
2018-06-10T01:10:36.974Z,51.40
2018-06-10T01:11:36.985Z,47.80
2018-06-10T01:12:36.953Z,43.80
2018-06-10T01:13:36.931Z,46.60
2018-06-10T01:14:36.919Z,44.30
2018-06-10T01:15:36.905Z,43.80
2018-06-10T01:16:36.893Z,42.00
2018-06-10T01:17:36.886Z,42.10
2018-06-10T01:18:36.873Z,40.90
2018-06-10T01:19:36.865Z,41.40
2018-06-10T01:20:36.857Z,43.10
2018-06-10T01:21:36.832Z,45.00
2018-06-10T01:22:36.828Z,43.20
2018-06-10T01:23:36.828Z,41.40
2018-06-10T01:24:36.801Z,39.80
2018-06-10T01:25:36.787Z,37.20
2018-06-10T01:26:36.777Z,41.50
2018-06-10T01:27:36.766Z,37.20
2018-06-10T01:28:36.766Z,42.90
2018-06-10T01:29:36.736Z,41.10
2018-06-10T01:30:36.721Z,39.20
2018-06-10T01:31:36.724Z,43.10
2018-06-10T01:32:36.707Z,41.00
2018-06-10T01:33:36.703Z,42.30
2018-06-10T01:34:36.681Z,42.20
2018-06-10T01:35:36.658Z,40.00
2018-06-10T01:36:36.693Z,37.10
2018-06-10T01:37:36.633Z,42.00
2018-06-10T01:38:36.638Z,42.80
2018-06-10T01:39:36.616Z,39.00
2018-06-10T01:40:36.617Z,42.70
2018-06-10T01:41:36.587Z,39.30
2018-06-10T01:42:36.585Z,42.00
2018-06-10T01:43:36.560Z,40.90
2018-06-10T01:44:36.558Z,45.10
2018-06-10T01:45:36.539Z,43.20
2018-06-10T01:46:36.551Z,43.40
2018-06-10T01:47:36.516Z,41.10
2018-06-10T01:48:36.519Z,46.20
2018-06-10T01:49:36.499Z,39.60
2018-06-10T01:50:36.486Z,42.70
2018-06-10T01:51:36.478Z,45.50
2018-06-10T01:52:36.453Z,47.10
2018-06-10T01:53:36.444Z,41.10
2018-06-10T01:54:36.424Z,46.10
2018-06-10T01:55:36.413Z,41.70
2018-06-10T01:56:36.397Z,41.40
2018-06-10T01:57:36.407Z,43.30
2018-06-10T01:58:36.396Z,41.00
2018-06-10T01:59:36.369Z,43.30
2018-06-10T02:00:36.355Z,41.20
2018-06-10T02:01:36.343Z,44.00
2018-06-10T02:02:36.337Z,39.20
2018-06-10T02:03:36.311Z,45.70
2018-06-10T02:04:36.299Z,40.30
2018-06-10T02:05:36.306Z,42.80
2018-06-10T02:06:36.282Z,44.60
2018-06-10T02:07:36.260Z,48.60
2018-06-10T02:08:36.258Z,43.20
2018-06-10T02:09:36.239Z,52.40
2018-06-10T02:10:36.253Z,67.40
2018-06-10T02:11:36.211Z,47.50
2018-06-10T02:12:36.204Z,47.40
2018-06-10T02:13:36.195Z,40.30
2018-06-10T02:14:36.180Z,39.90
2018-06-10T02:15:36.177Z,47.10
2018-06-10T02:16:36.159Z,40.00
2018-06-10T02:17:36.151Z,39.30
2018-06-10T02:18:36.146Z,41.10
2018-06-10T02:19:36.123Z,40.60
2018-06-10T02:20:36.104Z,40.70
2018-06-10T02:21:36.098Z,35.40
2018-06-10T02:22:36.085Z,41.10
2018-06-10T02:23:36.075Z,39.50
2018-06-10T02:24:36.073Z,40.90
2018-06-10T02:25:36.039Z,39.00
2018-06-10T02:26:36.028Z,41.60
2018-06-10T02:27:36.016Z,40.40
2018-06-10T02:28:36.058Z,60.90
2018-06-10T02:29:35.993Z,50.40
2018-06-10T02:30:35.995Z,45.40
2018-06-10T02:31:35.968Z,55.90
2018-06-10T02:32:35.969Z,51.40
2018-06-10T02:33:35.941Z,37.70
2018-06-10T02:34:35.924Z,39.90
2018-06-10T02:35:35.915Z,45.20
2018-06-10T02:36:35.905Z,44.80
2018-06-10T02:37:35.902Z,54.00
2018-06-10T02:38:35.905Z,52.30
2018-06-10T02:39:35.868Z,65.40
2018-06-10T02:40:35.855Z,71.00
2018-06-10T02:41:35.842Z,92.10
2018-06-10T02:42:35.831Z,68.70
2018-06-10T02:43:35.878Z,59.00
2018-06-10T02:44:35.816Z,82.70
2018-06-10T02:45:35.792Z,73.20
2018-06-10T02:46:35.794Z,56.40
2018-06-10T02:47:35.766Z,67.50
2018-06-10T02:48:35.759Z,63.40
2018-06-10T02:49:35.744Z,60.00
2018-06-10T02:50:35.731Z,69.60
2018-06-10T02:51:35.743Z,84.80
2018-06-10T02:52:35.695Z,64.00
2018-06-10T02:53:35.696Z,71.30
2018-06-10T02:54:35.679Z,77.70
2018-06-10T02:55:35.663Z,85.60
2018-06-10T02:56:35.646Z,73.60
2018-06-10T02:57:35.634Z,77.00
2018-06-10T02:58:35.631Z,67.80
2018-06-10T02:59:35.627Z,68.80
2018-06-10T03:00:35.617Z,72.70
2018-06-10T03:01:35.593Z,75.10
2018-06-10T03:02:35.597Z,77.80
2018-06-10T03:03:35.619Z,104.50
2018-06-10T03:04:35.550Z,85.30
2018-06-10T03:05:35.531Z,81.50
2018-06-10T03:06:35.519Z,96.20
2018-06-10T03:07:35.499Z,98.00
2018-06-10T03:08:35.508Z,128.50
2018-06-10T03:09:35.486Z,107.30
2018-06-10T03:10:35.466Z,104.30
2018-06-10T03:11:35.450Z,96.70
2018-06-10T03:12:35.445Z,90.90
2018-06-10T03:13:35.434Z,91.10
2018-06-10T03:14:35.423Z,91.50
2018-06-10T03:15:35.439Z,88.90
2018-06-10T03:16:35.392Z,85.80
2018-06-10T03:17:35.378Z,94.20
2018-06-10T03:18:35.358Z,99.80
2018-06-10T03:19:35.354Z,107.10
2018-06-10T03:20:35.342Z,100.70
2018-06-10T03:21:35.321Z,105.40
2018-06-10T03:22:35.311Z,103.40
2018-06-10T03:23:35.294Z,96.50
2018-06-10T03:24:35.281Z,100.90
2018-06-10T03:25:35.266Z,106.20
2018-06-10T03:26:35.304Z,102.30
2018-06-10T03:27:35.238Z,105.20
2018-06-10T03:28:35.236Z,106.40
2018-06-10T03:29:35.219Z,104.00
2018-06-10T03:30:35.203Z,102.70
2018-06-10T03:31:35.185Z,102.50
2018-06-10T03:32:35.172Z,109.20
2018-06-10T03:33:35.162Z,99.70
2018-06-10T03:34:35.157Z,110.90
2018-06-10T03:35:35.139Z,102.40
2018-06-10T03:36:35.123Z,110.00
2018-06-10T03:37:35.113Z,110.30
2018-06-10T03:38:35.134Z,111.50
2018-06-10T03:39:35.090Z,112.10
2018-06-10T03:40:35.076Z,111.50
2018-06-10T03:41:35.067Z,117.00
2018-06-10T03:42:35.051Z,117.20
2018-06-10T03:43:35.042Z,122.40
2018-06-10T03:44:35.023Z,125.10
2018-06-10T03:45:35.021Z,120.40
2018-06-10T03:46:35.008Z,121.20
2018-06-10T03:47:34.974Z,132.70
2018-06-10T03:48:34.968Z,127.40
2018-06-10T03:49:34.957Z,129.00
2018-06-10T03:50:34.951Z,128.90
2018-06-10T03:51:34.930Z,126.30
2018-06-10T03:52:34.908Z,126.10
2018-06-10T03:53:34.914Z,128.20
2018-06-10T03:54:34.890Z,124.40
2018-06-10T03:55:34.881Z,120.60
2018-06-10T03:56:34.861Z,126.80
2018-06-10T03:57:34.847Z,128.20
2018-06-10T03:58:34.832Z,129.50
2018-06-10T03:59:34.831Z,127.70
2018-06-10T04:00:34.822Z,124.50
2018-06-10T04:01:34.801Z,130.80
2018-06-10T04:02:34.781Z,121.40
2018-06-10T04:03:34.765Z,128.90
2018-06-10T04:04:34.795Z,133.40
2018-06-10T04:05:34.746Z,125.80
2018-06-10T04:06:34.729Z,130.30
2018-06-10T04:07:34.715Z,125.00
2018-06-10T04:08:34.733Z,136.10
2018-06-10T04:09:34.697Z,135.90
2018-06-10T04:10:34.680Z,128.80
2018-06-10T04:11:34.699Z,138.20
2018-06-10T04:12:34.645Z,133.30
2018-06-10T04:13:34.633Z,142.50
2018-06-10T04:14:34.643Z,139.80
2018-06-10T04:15:34.621Z,138.60
2018-06-10T04:16:34.610Z,136.50
2018-06-10T04:17:34.591Z,149.20
2018-06-10T04:18:34.570Z,144.40
2018-06-10T04:19:34.558Z,140.90
2018-06-10T04:20:34.544Z,139.80
2018-06-10T04:21:34.593Z,132.30
2018-06-10T04:22:34.535Z,127.10
2018-06-10T04:23:34.506Z,134.20
2018-06-10T04:24:34.497Z,134.80
2018-06-10T04:25:34.493Z,131.20
2018-06-10T04:26:34.487Z,136.10
2018-06-10T04:27:34.455Z,132.10
2018-06-10T04:28:34.439Z,134.30
2018-06-10T04:29:34.429Z,128.20
2018-06-10T04:30:34.427Z,126.70
2018-06-10T04:31:34.418Z,135.90
2018-06-10T04:32:34.390Z,132.90
2018-06-10T04:33:34.375Z,128.60
2018-06-10T04:34:34.364Z,142.30
2018-06-10T04:35:34.352Z,147.00
2018-06-10T04:36:34.351Z,136.50
2018-06-10T04:37:34.325Z,128.90
2018-06-10T04:38:34.324Z,118.40
2018-06-10T04:39:34.305Z,127.30
2018-06-10T04:40:34.287Z,123.80
2018-06-10T04:41:34.289Z,124.80
2018-06-10T04:42:34.257Z,117.20
2018-06-10T04:43:34.247Z,122.80
2018-06-10T04:44:34.246Z,118.80
2018-06-10T04:45:34.221Z,112.60
2018-06-10T04:46:34.217Z,115.50
2018-06-10T04:47:34.206Z,106.80
2018-06-10T04:48:34.184Z,109.60
2018-06-10T04:49:34.169Z,112.40
2018-06-10T04:50:34.160Z,104.00
2018-06-10T04:51:34.150Z,109.60
2018-06-10T04:52:34.157Z,108.30
2018-06-10T04:53:34.126Z,110.00
2018-06-10T04:54:34.120Z,106.50
2018-06-10T04:55:34.101Z,110.30
2018-06-10T04:56:34.083Z,102.80
2018-06-10T04:57:34.066Z,110.70
2018-06-10T04:58:34.058Z,102.00
2018-06-10T04:59:34.064Z,103.20
2018-06-10T05:00:34.034Z,102.40
2018-06-10T05:01:34.028Z,109.70
2018-06-10T05:02:34.012Z,106.00
2018-06-10T05:03:33.991Z,99.50
2018-06-10T05:04:33.980Z,103.50
2018-06-10T05:05:33.988Z,106.80
2018-06-10T05:06:33.968Z,114.00
2018-06-10T05:07:33.969Z,101.20
2018-06-10T05:08:33.940Z,110.70
2018-06-10T05:09:33.916Z,105.50
2018-06-10T05:10:33.910Z,96.10
2018-06-10T05:11:33.896Z,104.50
2018-06-10T05:12:33.896Z,100.00
2018-06-10T05:13:33.884Z,103.30
2018-06-10T05:14:33.856Z,103.10
2018-06-10T05:15:33.841Z,106.60
2018-06-10T05:16:33.833Z,107.50
2018-06-10T05:17:33.824Z,105.70
2018-06-10T05:18:33.808Z,110.00
2018-06-10T05:19:33.789Z,98.80
2018-06-10T05:20:33.779Z,101.40
2018-06-10T05:21:33.768Z,104.60
2018-06-10T05:22:33.754Z,96.90
2018-06-10T05:23:33.758Z,94.10
2018-06-10T05:24:33.731Z,102.00
2018-06-10T05:25:33.721Z,95.60
2018-06-10T05:26:33.713Z,90.10
2018-06-10T05:27:33.706Z,98.80
2018-06-10T05:28:33.681Z,100.70
2018-06-10T05:29:33.662Z,94.70
2018-06-10T05:30:33.652Z,91.10
2018-06-10T05:31:33.648Z,100.40
2018-06-10T05:32:33.629Z,88.70
2018-06-10T05:33:33.623Z,94.80
2018-06-10T05:34:33.618Z,92.70
2018-06-10T05:35:33.596Z,94.90
2018-06-10T05:36:33.586Z,91.90
2018-06-10T05:37:33.562Z,98.40
2018-06-10T05:38:33.567Z,92.80
2018-06-10T05:39:33.543Z,101.30
2018-06-10T05:40:33.527Z,101.10
2018-06-10T05:41:33.518Z,91.70
2018-06-10T05:42:33.533Z,90.80
2018-06-10T05:43:33.509Z,98.20
2018-06-10T05:44:33.476Z,97.80
2018-06-10T05:45:33.461Z,89.60
2018-06-10T05:46:33.465Z,92.80
2018-06-10T05:47:33.448Z,94.20
2018-06-10T05:48:33.430Z,87.20
2018-06-10T05:49:33.423Z,80.50
2018-06-10T05:50:33.410Z,87.60
2018-06-10T05:51:33.393Z,88.60
2018-06-10T05:52:33.378Z,83.70
2018-06-10T05:53:33.372Z,84.80
2018-06-10T05:54:33.387Z,84.40
2018-06-10T05:55:33.359Z,87.50
2018-06-10T05:56:33.334Z,84.80
2018-06-10T05:57:33.319Z,91.20
2018-06-10T05:58:33.300Z,87.20
2018-06-10T05:59:33.326Z,84.90
2018-06-10T06:00:33.284Z,84.10
2018-06-10T06:01:33.281Z,94.30
2018-06-10T06:02:33.257Z,92.70
2018-06-10T06:03:33.245Z,77.20
2018-06-10T06:04:33.232Z,83.10
2018-06-10T06:05:33.238Z,79.60
2018-06-10T06:06:33.206Z,85.00
2018-06-10T06:07:33.186Z,79.60
2018-06-10T06:08:33.186Z,82.30
2018-06-10T06:09:33.166Z,81.40
2018-06-10T06:10:33.165Z,84.90
2018-06-10T06:11:33.137Z,79.50
2018-06-10T06:12:33.134Z,87.60
2018-06-10T06:13:33.112Z,89.10
2018-06-10T06:14:33.107Z,97.20
2018-06-10T06:15:33.101Z,96.80
2018-06-10T06:16:33.083Z,93.90
2018-06-10T06:17:33.074Z,90.30
2018-06-10T06:18:33.086Z,86.70
2018-06-10T06:19:33.055Z,93.80
2018-06-10T06:20:33.058Z,97.80
2018-06-10T06:21:33.156Z,91.10
2018-06-10T06:22:33.074Z,94.80
2018-06-10T06:23:33.005Z,96.00
2018-06-10T06:24:33.014Z,86.50
2018-06-10T06:25:32.989Z,88.00
2018-06-10T06:26:32.962Z,80.20
2018-06-10T06:27:32.948Z,82.30
2018-06-10T06:28:32.934Z,84.90
2018-06-10T06:29:32.933Z,86.80
2018-06-10T06:30:32.940Z,91.20
2018-06-10T06:31:32.892Z,93.20
2018-06-10T06:32:32.882Z,90.20
2018-06-10T06:33:32.873Z,87.50
2018-06-10T06:34:32.854Z,80.10
2018-06-10T06:35:32.860Z,89.90
2018-06-10T06:36:32.849Z,92.30
2018-06-10T06:37:32.823Z,93.30
2018-06-10T06:38:32.814Z,87.20
2018-06-10T06:39:32.803Z,87.20
2018-06-10T06:40:32.796Z,85.10
2018-06-10T06:41:32.768Z,87.00
2018-06-10T06:42:32.768Z,92.90
2018-06-10T06:43:32.750Z,90.00
2018-06-10T06:44:32.740Z,92.30
2018-06-10T06:45:32.733Z,85.90
2018-06-10T06:46:32.721Z,85.20
2018-06-10T06:47:32.695Z,91.00
2018-06-10T06:48:32.684Z,84.60
2018-06-10T06:49:32.737Z,86.40
2018-06-10T06:50:32.653Z,88.20
2018-06-10T06:51:32.647Z,78.90
2018-06-10T06:52:32.660Z,84.20
2018-06-10T06:53:32.652Z,80.60
2018-06-10T06:54:32.627Z,80.60
2018-06-10T06:55:32.601Z,80.10
2018-06-10T06:56:32.590Z,80.80
2018-06-10T06:57:32.585Z,77.90
2018-06-10T06:58:32.563Z,83.10
2018-06-10T06:59:32.571Z,79.40
2018-06-10T07:00:32.557Z,76.50
2018-06-10T07:01:32.526Z,81.30
2018-06-10T07:02:32.523Z,79.00
2018-06-10T07:03:32.503Z,69.60
2018-06-10T07:04:32.497Z,72.60
2018-06-10T07:05:32.492Z,72.40
2018-06-10T07:06:32.472Z,74.90
2018-06-10T07:07:32.466Z,70.70
2018-06-10T07:08:32.448Z,71.80
2018-06-10T07:09:32.458Z,65.80
2018-06-10T07:10:32.434Z,69.80
2018-06-10T07:11:32.403Z,65.50
2018-06-10T07:12:32.395Z,65.90
2018-06-10T07:13:32.381Z,64.80
2018-06-10T07:14:32.373Z,65.60
2018-06-10T07:15:32.362Z,63.40
2018-06-10T07:16:32.354Z,59.40
2018-06-10T07:17:32.333Z,58.50
2018-06-10T07:18:32.327Z,61.40
2018-06-10T07:19:32.314Z,56.30
2018-06-10T07:20:32.300Z,59.10
2018-06-10T07:21:32.308Z,56.70
2018-06-10T07:22:32.278Z,54.50
2018-06-10T07:23:32.264Z,51.20
2018-06-10T07:24:32.280Z,52.30
2018-06-10T07:25:32.241Z,45.60
2018-06-10T07:26:32.304Z,45.90
2018-06-10T07:27:32.224Z,42.40
2018-06-10T07:28:32.229Z,45.10
2018-06-10T07:29:32.277Z,44.30
2018-06-10T07:30:32.215Z,42.90
2018-06-10T07:31:32.179Z,42.60
2018-06-10T07:32:32.199Z,45.50
2018-06-10T07:33:32.213Z,44.20
2018-06-10T07:34:32.168Z,42.80
2018-06-10T07:35:32.142Z,36.30
2018-06-10T07:36:32.148Z,43.00
2018-06-10T07:37:32.122Z,37.10
2018-06-10T07:38:32.122Z,36.70
2018-06-10T07:39:32.114Z,35.70
2018-06-10T07:40:32.132Z,37.40
2018-06-10T07:41:32.073Z,34.90
2018-06-10T07:42:32.067Z,33.70
2018-06-10T07:43:32.080Z,34.60
2018-06-10T07:44:32.032Z,37.00
2018-06-10T07:45:32.025Z,34.70
2018-06-10T07:46:32.014Z,35.10
2018-06-10T07:47:32.008Z,33.20
2018-06-10T07:48:32.049Z,31.90
2018-06-10T07:49:32.004Z,35.90
2018-06-10T07:50:31.975Z,34.50
2018-06-10T07:51:31.961Z,33.30
2018-06-10T07:52:31.962Z,36.60
2018-06-10T07:53:31.944Z,37.50
2018-06-10T07:54:31.928Z,36.00
2018-06-10T07:55:31.933Z,35.90
2018-06-10T07:56:31.945Z,34.60
2018-06-10T07:57:31.904Z,33.80
2018-06-10T07:58:31.887Z,32.20
2018-06-10T07:59:31.879Z,33.40
2018-06-10T08:00:31.867Z,31.80
2018-06-10T08:01:31.857Z,30.00
2018-06-10T08:02:31.854Z,29.60
2018-06-10T08:03:31.839Z,28.90
2018-06-10T08:04:31.820Z,30.00
2018-06-10T08:05:31.810Z,30.70
2018-06-10T08:06:31.812Z,28.20
2018-06-10T08:07:31.795Z,30.00
2018-06-10T08:08:31.783Z,28.40
2018-06-10T08:09:31.779Z,28.40
2018-06-10T08:10:31.761Z,27.90
2018-06-10T08:11:31.782Z,26.30
2018-06-10T08:12:31.744Z,24.80
2018-06-10T08:13:31.750Z,25.00
2018-06-10T08:14:31.767Z,27.10
2018-06-10T08:15:31.728Z,24.20
2018-06-10T08:16:31.708Z,24.50
2018-06-10T08:17:31.702Z,24.70
2018-06-10T08:18:31.687Z,25.20
2018-06-10T08:19:31.693Z,25.40
2018-06-10T08:20:31.672Z,24.80
2018-06-10T08:21:31.671Z,26.90
2018-06-10T08:22:31.657Z,23.60
2018-06-10T08:23:31.655Z,24.00
2018-06-10T08:24:31.645Z,24.90
2018-06-10T08:25:31.636Z,22.70
2018-06-10T08:26:31.635Z,22.30
2018-06-10T08:27:31.608Z,23.80
2018-06-10T08:28:31.603Z,22.40
2018-06-10T08:29:31.595Z,22.10
2018-06-10T08:30:31.591Z,22.00
2018-06-10T08:31:31.590Z,21.30
2018-06-10T08:32:31.584Z,21.80
2018-06-10T08:33:31.588Z,21.60
2018-06-10T08:34:31.596Z,20.90
2018-06-10T08:35:31.540Z,22.00
2018-06-10T08:36:31.567Z,21.30
2018-06-10T08:37:31.522Z,22.10
2018-06-10T08:38:31.547Z,22.30
2018-06-10T08:39:31.502Z,22.40
2018-06-10T08:40:31.504Z,23.00
2018-06-10T08:41:31.492Z,21.90
2018-06-10T08:42:31.496Z,23.10
2018-06-10T08:43:31.476Z,22.20
2018-06-10T08:44:31.463Z,22.90
2018-06-10T08:45:31.443Z,24.10
2018-06-10T08:46:31.497Z,25.20
2018-06-10T08:47:31.438Z,24.10
2018-06-10T08:48:31.418Z,24.40
2018-06-10T08:49:31.415Z,23.60
2018-06-10T08:50:31.450Z,27.40
2018-06-10T08:51:31.398Z,23.30
2018-06-10T08:52:31.490Z,22.90
2018-06-10T08:53:31.386Z,20.90
2018-06-10T08:54:31.373Z,22.00
2018-06-10T08:55:31.351Z,22.00
2018-06-10T08:56:31.374Z,22.50
2018-06-10T08:57:31.341Z,22.60
2018-06-10T08:58:31.345Z,24.00
2018-06-10T08:59:31.329Z,25.30
2018-06-10T09:00:31.314Z,22.50
2018-06-10T09:01:31.309Z,22.70
2018-06-10T09:02:31.302Z,23.40
2018-06-10T09:03:31.284Z,22.50
2018-06-10T09:04:31.277Z,21.70
2018-06-10T09:05:31.270Z,22.40
2018-06-10T09:06:31.258Z,23.40
2018-06-10T09:07:31.245Z,22.30
2018-06-10T09:08:31.254Z,22.70
2018-06-10T09:09:31.223Z,20.60
2018-06-10T09:10:31.215Z,21.70
2018-06-10T09:11:31.233Z,21.30
2018-06-10T09:12:31.214Z,19.50
2018-06-10T09:13:31.182Z,21.00
2018-06-10T09:14:31.196Z,21.70
2018-06-10T09:15:31.164Z,20.50
2018-06-10T09:16:31.162Z,21.20
2018-06-10T09:17:31.152Z,21.00
2018-06-10T09:18:31.149Z,21.90
2018-06-10T09:19:31.142Z,21.60
2018-06-10T09:20:31.146Z,23.40
2018-06-10T09:21:31.150Z,21.10
2018-06-10T09:22:31.132Z,26.30
2018-06-10T09:23:31.102Z,22.80
2018-06-10T09:24:31.134Z,20.70
2018-06-10T09:25:31.083Z,20.70
2018-06-10T09:26:31.093Z,19.80
2018-06-10T09:27:31.068Z,21.00
2018-06-10T09:28:31.066Z,21.40
2018-06-10T09:29:31.057Z,18.60
2018-06-10T09:30:31.041Z,18.70
2018-06-10T09:31:31.042Z,19.20
2018-06-10T09:32:31.025Z,20.20
2018-06-10T09:33:31.026Z,19.10
2018-06-10T09:34:31.021Z,18.90
2018-06-10T09:35:31.021Z,18.10
2018-06-10T09:36:30.991Z,19.20
2018-06-10T09:37:30.987Z,19.80
2018-06-10T09:38:30.989Z,19.90
2018-06-10T09:39:30.971Z,20.80
2018-06-10T09:40:30.953Z,19.20
2018-06-10T09:41:30.960Z,20.60
2018-06-10T09:42:30.944Z,18.90
2018-06-10T09:43:30.936Z,18.40
2018-06-10T09:44:30.920Z,18.60
2018-06-10T09:45:30.911Z,21.40
2018-06-10T09:46:30.911Z,18.20
2018-06-10T09:47:30.891Z,20.20
2018-06-10T09:48:30.905Z,20.00
2018-06-10T09:49:30.873Z,20.00
2018-06-10T09:50:30.889Z,20.10
2018-06-10T09:51:30.914Z,20.90
2018-06-10T09:52:30.857Z,21.40
2018-06-10T09:53:30.846Z,23.00
2018-06-10T09:54:30.875Z,24.10
2018-06-10T09:55:30.979Z,22.90
2018-06-10T09:56:30.818Z,22.80
2018-06-10T09:57:30.814Z,20.90
2018-06-10T09:58:30.822Z,21.30
2018-06-10T09:59:30.793Z,22.70
2018-06-10T10:00:30.784Z,21.00
2018-06-10T10:01:30.780Z,22.70
2018-06-10T10:02:30.787Z,23.30
2018-06-10T10:03:30.746Z,23.30
2018-06-10T10:04:30.753Z,22.90
2018-06-10T10:05:30.755Z,25.20
2018-06-10T10:06:30.729Z,22.30
2018-06-10T10:07:30.726Z,23.30
2018-06-10T10:08:30.727Z,23.50
2018-06-10T10:09:30.722Z,23.30
2018-06-10T10:10:30.703Z,24.20
2018-06-10T10:11:30.700Z,26.10
2018-06-10T10:12:30.680Z,24.40
2018-06-10T10:13:30.680Z,24.90
2018-06-10T10:14:30.723Z,25.30
2018-06-10T10:15:30.651Z,24.10
2018-06-10T10:16:30.638Z,24.10
2018-06-10T10:17:30.635Z,22.60
2018-06-10T10:18:30.670Z,21.00
2018-06-10T10:19:30.629Z,20.80
2018-06-10T10:20:30.638Z,20.50
2018-06-10T10:21:30.621Z,19.50
2018-06-10T10:22:30.606Z,19.50
2018-06-10T10:23:30.583Z,20.30
2018-06-10T10:24:30.591Z,20.00
2018-06-10T10:25:30.611Z,18.60
2018-06-10T10:26:30.582Z,19.30
2018-06-10T10:27:30.566Z,19.40
2018-06-10T10:28:30.538Z,20.50
2018-06-10T10:29:30.532Z,20.30
2018-06-10T10:30:30.537Z,21.00
2018-06-10T10:31:30.521Z,20.10
2018-06-10T10:32:30.540Z,22.80
2018-06-10T10:33:30.680Z,25.50
2018-06-10T10:34:30.500Z,26.50
2018-06-10T10:35:30.486Z,24.90
2018-06-10T10:36:30.490Z,24.10
2018-06-10T10:37:30.462Z,26.40
2018-06-10T10:38:30.465Z,26.90
2018-06-10T10:39:30.503Z,22.60
2018-06-10T10:40:30.453Z,26.90
2018-06-10T10:41:30.433Z,24.30
2018-06-10T10:42:30.424Z,25.30
2018-06-10T10:43:30.414Z,24.20
2018-06-10T10:44:30.406Z,26.30
2018-06-10T10:45:30.397Z,23.60
2018-06-10T10:46:30.419Z,25.80
2018-06-10T10:47:30.371Z,25.10
2018-06-10T10:48:30.376Z,24.20
2018-06-10T10:49:30.369Z,25.10
2018-06-10T10:50:30.373Z,25.40
2018-06-10T10:51:30.346Z,25.90
2018-06-10T10:52:30.334Z,25.80
2018-06-10T10:53:30.331Z,29.80
2018-06-10T10:54:30.324Z,27.70
2018-06-10T10:55:30.310Z,26.50
2018-06-10T10:56:30.311Z,26.20
2018-06-10T10:57:30.289Z,26.20
2018-06-10T10:58:30.280Z,26.50
2018-06-10T10:59:30.270Z,27.40
2018-06-10T11:00:30.274Z,27.90
2018-06-10T11:01:30.259Z,26.00
2018-06-10T11:02:30.258Z,25.00
2018-06-10T11:03:30.238Z,24.80
2018-06-10T11:04:30.237Z,26.90
2018-06-10T11:05:30.231Z,24.80
2018-06-10T11:06:30.225Z,23.80
2018-06-10T11:07:30.204Z,23.50
2018-06-10T11:08:30.215Z,27.00
2018-06-10T11:09:30.195Z,25.80
2018-06-10T11:10:30.201Z,24.30
2018-06-10T11:11:30.161Z,27.60
2018-06-10T11:12:30.170Z,25.30
2018-06-10T11:13:30.164Z,24.50
2018-06-10T11:14:30.156Z,27.10
2018-06-10T11:15:30.147Z,27.50
2018-06-10T11:16:30.153Z,27.50
2018-06-10T11:17:30.136Z,29.80
2018-06-10T11:18:30.097Z,29.40
2018-06-10T11:19:30.100Z,25.10
2018-06-10T11:20:30.091Z,25.50
2018-06-10T11:21:30.073Z,26.10
2018-06-10T11:22:30.070Z,26.00
2018-06-10T11:23:30.066Z,28.20
2018-06-10T11:24:30.062Z,24.70
2018-06-10T11:25:30.041Z,26.60
2018-06-10T11:26:30.055Z,24.00
2018-06-10T11:27:30.031Z,25.40
2018-06-10T11:28:30.014Z,24.60
2018-06-10T11:29:30.011Z,24.90
2018-06-10T11:30:29.999Z,26.00
2018-06-10T11:31:30.003Z,25.00
2018-06-10T11:32:29.980Z,24.60
2018-06-10T11:33:29.970Z,29.60
2018-06-10T11:34:30.035Z,25.90
2018-06-10T11:35:29.965Z,25.40
2018-06-10T11:36:29.949Z,25.20
2018-06-10T11:37:29.938Z,30.10
2018-06-10T11:38:29.924Z,30.30
2018-06-10T11:39:29.930Z,26.60
2018-06-10T11:40:29.913Z,27.10
2018-06-10T11:41:29.908Z,27.40
2018-06-10T11:42:29.964Z,26.10
2018-06-10T11:43:29.889Z,27.40
2018-06-10T11:44:29.880Z,29.40
2018-06-10T11:45:29.882Z,27.00
2018-06-10T11:46:29.904Z,27.80
2018-06-10T11:47:29.862Z,25.70
2018-06-10T11:48:29.863Z,28.90
2018-06-10T11:49:29.881Z,27.50
2018-06-10T11:50:29.827Z,25.40
2018-06-10T11:51:29.845Z,27.30
2018-06-10T11:52:29.808Z,26.80
2018-06-10T11:53:29.801Z,27.10
2018-06-10T11:54:29.897Z,23.80
2018-06-10T11:55:29.783Z,24.10
2018-06-10T11:56:29.855Z,23.60
2018-06-10T11:57:29.785Z,23.20
2018-06-10T11:58:29.773Z,24.30
2018-06-10T11:59:29.795Z,26.90
2018-06-10T12:00:29.842Z,27.40
2018-06-10T12:01:29.744Z,26.70
2018-06-10T12:02:30.360Z,26.20
2018-06-10T12:03:29.763Z,27.40
2018-06-10T12:04:29.818Z,31.80
2018-06-10T12:05:29.707Z,30.60
2018-06-10T12:06:29.686Z,33.70
2018-06-10T12:07:29.692Z,34.30
2018-06-10T12:08:29.702Z,33.80
2018-06-10T12:09:29.674Z,32.40
2018-06-10T12:10:29.685Z,36.40
2018-06-10T12:11:29.674Z,36.20
2018-06-10T12:12:29.647Z,34.70
2018-06-10T12:13:29.880Z,35.80
2018-06-10T12:14:29.661Z,36.80
2018-06-10T12:15:29.631Z,36.30
2018-06-10T12:16:29.609Z,36.80
2018-06-10T12:17:29.623Z,41.40
2018-06-10T12:18:29.607Z,37.20
2018-06-10T12:19:29.660Z,38.10
2018-06-10T12:20:29.605Z,36.70
2018-06-10T12:21:29.594Z,40.70
2018-06-10T12:22:29.588Z,38.20
2018-06-10T12:23:29.629Z,38.70
2018-06-10T12:24:29.547Z,41.80
2018-06-10T12:25:29.562Z,41.00
2018-06-10T12:26:29.535Z,38.50
2018-06-10T12:27:29.533Z,36.90
2018-06-10T12:28:29.526Z,35.00
2018-06-10T12:29:29.543Z,33.80
2018-06-10T12:30:29.522Z,32.80
2018-06-10T12:31:29.490Z,31.20
2018-06-10T12:32:29.496Z,30.20
2018-06-10T12:33:29.467Z,32.80
2018-06-10T12:34:29.487Z,29.60
2018-06-10T12:35:29.483Z,29.30
2018-06-10T12:36:29.468Z,29.00
2018-06-10T12:37:29.445Z,29.20
2018-06-10T12:38:29.450Z,29.10
2018-06-10T12:39:29.456Z,33.40
2018-06-10T12:40:29.479Z,29.90
2018-06-10T12:41:29.460Z,29.70
2018-06-10T12:42:29.420Z,30.30
2018-06-10T12:43:29.399Z,32.30
2018-06-10T12:44:29.382Z,30.90
2018-06-10T12:45:29.380Z,34.60
2018-06-10T12:46:29.377Z,31.00
2018-06-10T12:47:29.377Z,29.80
2018-06-10T12:48:29.353Z,33.30